createdAt,value
2017-12-28T00:01:57.034Z,9.60
2017-12-28T00:04:24.534Z,9.70
2017-12-28T00:06:52.047Z,9.80
2017-12-28T00:09:20.327Z,9.80
2017-12-28T00:11:47.810Z,9.80
2017-12-28T00:14:15.318Z,9.80
2017-12-28T00:16:42.816Z,9.70
2017-12-28T00:19:10.341Z,9.60
2017-12-28T00:21:38.615Z,9.60
2017-12-28T00:24:06.110Z,9.70
2017-12-28T00:26:33.603Z,9.70
2017-12-28T00:29:01.095Z,9.60
2017-12-28T00:31:29.370Z,9.70
2017-12-28T00:33:57.645Z,9.70
2017-12-28T00:36:25.906Z,9.60
2017-12-28T00:38:53.587Z,9.60
2017-12-28T00:41:21.866Z,9.60
2017-12-28T00:43:50.145Z,9.60
2017-12-28T00:46:18.406Z,9.60
2017-12-28T00:48:45.900Z,9.60
2017-12-28T00:51:13.378Z,9.70
2017-12-28T00:53:40.869Z,9.70
2017-12-28T00:56:08.353Z,9.70
2017-12-28T00:58:36.634Z,9.70
2017-12-28T01:01:05.107Z,9.70
2017-12-28T01:03:33.371Z,9.70
2017-12-28T01:06:00.879Z,9.70
2017-12-28T01:08:28.370Z,9.70
2017-12-28T01:10:56.646Z,9.70
2017-12-28T01:13:24.143Z,9.60
2017-12-28T01:15:52.403Z,9.70
2017-12-28T01:18:20.682Z,9.70
2017-12-28T01:20:48.962Z,9.60
2017-12-28T01:23:17.220Z,9.30
2017-12-28T01:25:44.733Z,9.20
2017-12-28T01:28:12.236Z,9.10
2017-12-28T01:30:39.731Z,8.70
2017-12-28T01:33:07.250Z,8.30
2017-12-28T01:35:35.511Z,7.60
2017-12-28T01:38:03.003Z,7.60
2017-12-28T01:40:31.262Z,6.90
2017-12-28T01:42:59.525Z,6.80
2017-12-28T01:45:27.035Z,6.80
2017-12-28T01:48:02.436Z,6.60
2017-12-28T01:50:29.938Z,6.40
2017-12-28T01:52:57.460Z,6.30
2017-12-28T01:55:24.960Z,6.10
2017-12-28T01:57:52.455Z,6.00
2017-12-28T02:00:19.950Z,5.90
2017-12-28T02:02:48.206Z,5.80
2017-12-28T02:05:15.703Z,5.80
2017-12-28T02:07:43.219Z,5.80
2017-12-28T02:10:10.718Z,5.70
2017-12-28T02:12:38.218Z,5.80
2017-12-28T02:15:05.722Z,5.70
2017-12-28T02:17:33.994Z,5.70
2017-12-28T02:20:02.260Z,5.60
2017-12-28T02:22:29.758Z,5.60
2017-12-28T02:24:57.258Z,5.50
2017-12-28T02:27:24.758Z,5.40
2017-12-28T02:29:52.262Z,5.50
2017-12-28T02:32:19.967Z,5.40
2017-12-28T02:34:48.226Z,5.40
2017-12-28T02:37:15.911Z,5.40
2017-12-28T02:39:44.387Z,5.40
2017-12-28T02:42:12.657Z,5.30
2017-12-28T02:44:40.920Z,5.20
2017-12-28T02:47:09.192Z,5.30
2017-12-28T02:49:36.884Z,5.20
2017-12-28T02:52:05.149Z,5.20
2017-12-28T02:54:33.466Z,5.10
2017-12-28T02:57:00.966Z,5.10
2017-12-28T02:59:29.974Z,5.10
2017-12-28T03:01:57.482Z,5.10
2017-12-28T03:04:24.994Z,5.00
2017-12-28T03:06:53.262Z,4.90
2017-12-28T03:09:20.755Z,4.90
2017-12-28T03:11:48.256Z,4.90
2017-12-28T03:14:15.765Z,4.80
2017-12-28T03:16:43.286Z,4.80
2017-12-28T03:19:11.546Z,4.70
2017-12-28T03:21:39.042Z,4.70
2017-12-28T03:24:07.308Z,4.60
2017-12-28T03:26:36.330Z,4.60
2017-12-28T03:29:03.830Z,4.60
2017-12-28T03:31:31.339Z,4.60
2017-12-28T03:33:59.603Z,4.50
2017-12-28T03:36:27.897Z,4.50
2017-12-28T03:38:55.519Z,4.50
2017-12-28T03:41:23.015Z,4.40
2017-12-28T03:43:50.510Z,4.40
2017-12-28T03:46:18.026Z,4.40
2017-12-28T03:48:46.291Z,4.40
2017-12-28T03:51:14.558Z,4.40
2017-12-28T03:53:42.067Z,4.40
2017-12-28T03:56:09.578Z,4.40
2017-12-28T03:58:37.099Z,4.40
2017-12-28T04:01:04.636Z,4.40
2017-12-28T04:03:32.863Z,4.40
2017-12-28T04:06:00.379Z,4.30
2017-12-28T04:08:27.870Z,4.40
2017-12-28T04:10:55.377Z,4.40
2017-12-28T04:13:22.887Z,4.30
2017-12-28T04:15:50.378Z,4.20
2017-12-28T04:18:18.638Z,4.30
2017-12-28T04:20:46.138Z,4.30
2017-12-28T04:23:13.631Z,4.30
2017-12-28T04:25:41.118Z,4.30
2017-12-28T04:28:09.375Z,4.30
2017-12-28T04:30:37.650Z,4.30
2017-12-28T04:33:05.910Z,4.30
2017-12-28T04:35:33.410Z,4.30
2017-12-28T04:38:01.685Z,4.20
2017-12-28T04:40:29.944Z,4.30
2017-12-28T04:42:57.430Z,4.20
2017-12-28T04:45:25.684Z,4.40
2017-12-28T04:47:53.191Z,4.30
2017-12-28T04:50:20.703Z,4.40
2017-12-28T04:52:49.254Z,4.40
2017-12-28T04:55:16.742Z,4.40
2017-12-28T04:57:45.004Z,4.50
2017-12-28T05:00:12.492Z,4.50
2017-12-28T05:02:41.570Z,4.50
2017-12-28T05:05:09.054Z,4.50
2017-12-28T05:07:36.559Z,4.60
2017-12-28T05:10:04.063Z,4.60
2017-12-28T05:12:32.322Z,4.50
2017-12-28T05:15:00.594Z,4.60
2017-12-28T05:17:28.102Z,4.60
2017-12-28T05:19:55.598Z,4.60
2017-12-28T05:22:23.103Z,4.60
2017-12-28T05:24:50.598Z,4.50
2017-12-28T05:27:18.088Z,4.60
2017-12-28T05:29:45.696Z,4.60
2017-12-28T05:32:13.186Z,4.70
2017-12-28T05:34:40.683Z,4.50
2017-12-28T05:37:08.938Z,4.40
2017-12-28T05:39:36.431Z,4.40
2017-12-28T05:42:03.935Z,4.50
2017-12-28T05:44:31.430Z,4.50
2017-12-28T05:46:59.685Z,4.60
2017-12-28T05:49:27.174Z,4.60
2017-12-28T05:51:54.666Z,4.60
2017-12-28T05:54:22.162Z,4.60
2017-12-28T05:56:49.679Z,4.50
2017-12-28T05:59:17.179Z,4.60
2017-12-28T06:01:44.671Z,4.60
2017-12-28T06:04:12.163Z,4.60
2017-12-28T06:06:39.675Z,4.60
2017-12-28T06:09:07.934Z,4.60
2017-12-28T06:11:36.195Z,4.70
2017-12-28T06:14:03.683Z,4.70
2017-12-28T06:16:31.940Z,4.60
2017-12-28T06:18:59.435Z,4.60
2017-12-28T06:21:26.945Z,4.60
2017-12-28T06:23:54.443Z,4.70
2017-12-28T06:26:21.940Z,4.70
2017-12-28T06:28:49.430Z,4.70
2017-12-28T06:31:18.450Z,4.70
2017-12-28T06:33:45.954Z,4.70
2017-12-28T06:36:13.446Z,4.80
2017-12-28T06:38:41.726Z,4.80
2017-12-28T06:41:10.411Z,4.90
2017-12-28T06:43:38.690Z,4.80
2017-12-28T06:46:06.952Z,4.80
2017-12-28T06:48:34.463Z,4.80
2017-12-28T06:51:02.083Z,4.80
2017-12-28T06:53:30.354Z,4.90
2017-12-28T06:55:57.847Z,4.80
2017-12-28T06:58:25.334Z,4.80
2017-12-28T07:00:52.830Z,4.80
2017-12-28T07:03:21.112Z,4.80
2017-12-28T07:05:49.402Z,4.90
2017-12-28T07:08:17.667Z,4.90
2017-12-28T07:10:45.919Z,4.80
2017-12-28T07:13:13.410Z,4.90
2017-12-28T07:15:41.667Z,4.90
2017-12-28T07:18:09.926Z,4.80
2017-12-28T07:20:37.418Z,4.80
2017-12-28T07:23:05.674Z,4.70
2017-12-28T07:25:33.163Z,4.70
2017-12-28T07:28:00.660Z,4.80
2017-12-28T07:30:28.162Z,4.80
2017-12-28T07:32:56.423Z,4.90
2017-12-28T07:35:23.938Z,4.90
2017-12-28T07:37:51.426Z,4.90
2017-12-28T07:40:19.679Z,4.80
2017-12-28T07:42:47.171Z,4.80
2017-12-28T07:45:14.673Z,4.80
2017-12-28T07:47:42.162Z,4.80
2017-12-28T07:50:09.666Z,4.80
2017-12-28T07:52:38.142Z,4.80
2017-12-28T07:55:06.398Z,4.80
2017-12-28T07:57:33.905Z,4.80
2017-12-28T08:00:01.414Z,4.80
2017-12-28T08:02:28.907Z,4.80
2017-12-28T08:04:56.403Z,4.80
2017-12-28T08:07:23.895Z,4.80
2017-12-28T08:09:51.386Z,4.80
2017-12-28T08:12:18.887Z,4.80
2017-12-28T08:14:46.390Z,4.90
2017-12-28T08:17:14.646Z,4.90
2017-12-28T08:19:42.146Z,4.80
2017-12-28T08:22:09.636Z,4.90
2017-12-28T08:24:37.154Z,5.00
2017-12-28T08:27:04.671Z,4.90
2017-12-28T08:29:32.166Z,4.90
2017-12-28T08:31:59.687Z,4.80
2017-12-28T08:34:27.946Z,4.90
2017-12-28T08:36:55.438Z,4.90
2017-12-28T08:39:23.699Z,4.90
2017-12-28T08:41:51.190Z,4.90
2017-12-28T08:44:18.686Z,4.80
2017-12-28T08:46:46.203Z,4.80
2017-12-28T08:49:13.727Z,4.80
2017-12-28T08:51:41.219Z,4.90
2017-12-28T08:54:08.747Z,5.00
2017-12-28T08:56:36.239Z,5.20
2017-12-28T08:59:04.495Z,5.00
2017-12-28T09:01:32.004Z,5.00
2017-12-28T09:03:59.619Z,5.10
2017-12-28T09:06:27.893Z,5.10
2017-12-28T09:08:56.263Z,5.20
2017-12-28T09:11:23.751Z,5.10
2017-12-28T09:13:51.395Z,5.10
2017-12-28T09:16:19.770Z,5.10
2017-12-28T09:18:48.030Z,5.10
2017-12-28T09:21:15.518Z,5.00
2017-12-28T09:23:43.774Z,5.10
2017-12-28T09:26:11.273Z,5.10
2017-12-28T09:28:38.911Z,5.20
2017-12-28T09:31:07.194Z,5.20
2017-12-28T09:33:34.698Z,5.20
2017-12-28T09:36:02.204Z,5.20
2017-12-28T09:38:30.478Z,5.30
2017-12-28T09:40:58.730Z,5.40
2017-12-28T09:43:26.554Z,5.40
2017-12-28T09:45:54.051Z,5.40
2017-12-28T09:48:21.550Z,5.40
2017-12-28T09:50:49.226Z,5.50
2017-12-28T09:53:17.572Z,5.60
2017-12-28T09:55:45.826Z,5.70
2017-12-28T09:58:13.336Z,5.70
2017-12-28T10:00:40.831Z,5.70
2017-12-28T10:03:08.331Z,5.80
2017-12-28T10:05:36.606Z,6.00
2017-12-28T10:08:04.881Z,6.00
2017-12-28T10:10:33.156Z,6.00
2017-12-28T10:13:01.439Z,6.10
2017-12-28T10:15:29.703Z,6.00
2017-12-28T10:17:58.020Z,6.00
2017-12-28T10:20:25.532Z,5.90
2017-12-28T10:22:53.804Z,6.10
2017-12-28T10:25:21.319Z,6.10
2017-12-28T10:27:48.839Z,6.10
2017-12-28T10:30:17.098Z,6.10
2017-12-28T10:32:45.386Z,5.90
2017-12-28T10:35:12.921Z,5.90
2017-12-28T10:37:40.471Z,5.90
2017-12-28T10:40:08.082Z,5.90
2017-12-28T10:42:35.590Z,6.00
2017-12-28T10:45:03.096Z,6.00
2017-12-28T10:47:30.598Z,6.00
2017-12-28T10:49:58.098Z,6.10
2017-12-28T10:52:26.371Z,6.10
2017-12-28T10:54:54.658Z,6.20
2017-12-28T10:57:22.920Z,6.30
2017-12-28T10:59:50.420Z,6.30
2017-12-28T11:02:18.047Z,6.30
2017-12-28T11:04:46.331Z,6.30
2017-12-28T11:07:14.586Z,6.30
2017-12-28T11:09:42.074Z,6.30
2017-12-28T11:12:09.580Z,6.30
2017-12-28T11:14:37.275Z,6.20
2017-12-28T11:17:05.535Z,6.30
2017-12-28T11:19:33.823Z,6.30
2017-12-28T11:22:02.083Z,6.20
2017-12-28T11:24:29.576Z,6.20
2017-12-28T11:26:57.947Z,6.30
2017-12-28T11:29:26.211Z,6.30
2017-12-28T11:31:53.849Z,6.20
2017-12-28T11:34:21.342Z,6.30
2017-12-28T11:36:49.603Z,6.40
2017-12-28T11:39:18.640Z,6.50
2017-12-28T11:41:46.142Z,6.50
2017-12-28T11:44:13.631Z,6.50
2017-12-28T11:46:41.909Z,6.60
2017-12-28T11:49:10.182Z,6.60
2017-12-28T11:51:43.494Z,6.60
2017-12-28T11:54:12.913Z,6.60
2017-12-28T11:56:40.518Z,6.60
2017-12-28T11:59:13.719Z,6.70
2017-12-28T12:01:46.801Z,6.80
2017-12-28T12:04:23.348Z,7.00
2017-12-28T12:07:07.728Z,7.00
2017-12-28T12:09:41.013Z,7.00
2017-12-28T12:12:08.526Z,6.90
2017-12-28T12:14:36.028Z,6.90
2017-12-28T12:17:03.563Z,6.80
2017-12-28T12:19:31.084Z,6.80
2017-12-28T12:21:58.630Z,6.80
2017-12-28T12:24:26.923Z,6.90
2017-12-28T12:26:54.412Z,6.90
2017-12-28T12:29:21.912Z,6.90
2017-12-28T12:31:49.448Z,7.00
2017-12-28T12:34:16.966Z,7.00
2017-12-28T12:36:44.467Z,7.00
2017-12-28T12:39:11.960Z,7.10
2017-12-28T12:41:40.327Z,6.90
2017-12-28T12:44:08.586Z,6.80
2017-12-28T12:46:36.091Z,6.80
2017-12-28T12:49:03.590Z,6.80
2017-12-28T12:51:31.094Z,6.80
2017-12-28T12:53:59.465Z,7.00
2017-12-28T12:56:27.743Z,7.10
2017-12-28T12:58:56.008Z,7.20
2017-12-28T13:01:24.294Z,7.30
2017-12-28T13:03:52.787Z,7.30
2017-12-28T13:06:21.045Z,7.30
2017-12-28T13:08:49.314Z,7.20
2017-12-28T13:11:16.841Z,7.10
2017-12-28T13:13:44.369Z,7.20
2017-12-28T13:16:11.862Z,7.10
2017-12-28T13:18:39.358Z,6.90
2017-12-28T13:21:07.639Z,6.90
2017-12-28T13:23:35.930Z,7.20
2017-12-28T13:26:03.426Z,7.10
2017-12-28T13:28:30.911Z,7.10
2017-12-28T13:30:58.408Z,7.00
2017-12-28T13:33:26.771Z,6.70
2017-12-28T13:35:55.036Z,6.50
2017-12-28T13:38:23.307Z,6.50
2017-12-28T13:40:50.814Z,6.50
2017-12-28T13:43:18.314Z,6.40
2017-12-28T13:45:46.506Z,6.30
2017-12-28T13:48:14.778Z,6.30
2017-12-28T13:50:43.062Z,6.50
2017-12-28T13:53:11.330Z,6.50
2017-12-28T13:55:39.604Z,6.40
2017-12-28T13:58:07.875Z,6.30
2017-12-28T14:00:36.158Z,6.30
2017-12-28T14:03:03.671Z,6.30
2017-12-28T14:05:31.170Z,6.20
2017-12-28T14:07:58.706Z,6.10
2017-12-28T14:10:26.217Z,6.10
2017-12-28T14:12:53.722Z,6.10
2017-12-28T14:15:21.214Z,6.00
2017-12-28T14:17:49.488Z,6.10
2017-12-28T14:20:17.742Z,6.00
2017-12-28T14:22:46.004Z,6.00
2017-12-28T14:25:13.498Z,6.00
2017-12-28T14:27:41.755Z,5.90
2017-12-28T14:30:09.447Z,5.90
2017-12-28T14:32:37.712Z,5.70
2017-12-28T14:35:05.982Z,5.70
2017-12-28T14:37:34.874Z,5.70
2017-12-28T14:40:02.378Z,5.70
2017-12-28T14:42:29.871Z,5.70
2017-12-28T14:44:57.358Z,5.70
2017-12-28T14:47:25.612Z,5.50
2017-12-28T14:49:53.106Z,5.50
2017-12-28T14:52:20.599Z,5.60
2017-12-28T14:54:48.107Z,5.60
2017-12-28T14:57:16.366Z,5.60
2017-12-28T14:59:43.857Z,5.60
2017-12-28T15:02:12.388Z,5.60
2017-12-28T15:04:39.914Z,5.60
2017-12-28T15:07:07.407Z,5.40
2017-12-28T15:09:34.896Z,5.50
2017-12-28T15:12:03.159Z,5.60
2017-12-28T15:14:30.650Z,5.60
2017-12-28T15:16:58.303Z,5.50
2017-12-28T15:19:26.558Z,5.50
2017-12-28T15:21:54.050Z,5.40
2017-12-28T15:24:21.544Z,5.40
2017-12-28T15:26:49.043Z,5.50
2017-12-28T15:29:17.306Z,5.50
2017-12-28T15:31:44.795Z,5.50
2017-12-28T15:34:12.303Z,5.50
2017-12-28T15:36:39.851Z,5.40
2017-12-28T15:39:07.346Z,5.40
2017-12-28T15:41:34.859Z,5.40
2017-12-28T15:44:02.380Z,5.40
2017-12-28T15:46:30.638Z,5.40
2017-12-28T15:48:58.126Z,5.40
2017-12-28T15:51:25.643Z,5.40
2017-12-28T15:53:53.142Z,5.30
2017-12-28T15:56:20.642Z,5.40
2017-12-28T15:58:48.144Z,5.30
2017-12-28T16:01:16.422Z,5.20
2017-12-28T16:03:44.678Z,5.30
2017-12-28T16:06:12.207Z,5.20
2017-12-28T16:08:39.698Z,5.30
2017-12-28T16:11:07.967Z,5.30
2017-12-28T16:13:35.459Z,5.30
2017-12-28T16:16:02.974Z,5.30
2017-12-28T16:18:30.479Z,5.30
2017-12-28T16:20:57.970Z,5.30
2017-12-28T16:23:25.482Z,5.20
2017-12-28T16:25:53.957Z,5.20
2017-12-28T16:28:21.471Z,5.20
2017-12-28T16:30:48.960Z,5.20
2017-12-28T16:33:16.471Z,5.10
2017-12-28T16:35:43.966Z,5.00
2017-12-28T16:38:11.478Z,5.10
2017-12-28T16:40:39.110Z,5.10
2017-12-28T16:43:07.382Z,5.00
2017-12-28T16:45:35.659Z,4.90
2017-12-28T16:48:03.923Z,5.00
2017-12-28T16:50:31.439Z,4.90
2017-12-28T16:52:59.063Z,4.90
2017-12-28T16:55:27.326Z,4.80
2017-12-28T16:57:54.859Z,4.80
2017-12-28T17:00:22.394Z,4.80
2017-12-28T17:02:49.886Z,4.70
2017-12-28T17:05:17.398Z,4.60
2017-12-28T17:07:45.012Z,4.60
2017-12-28T17:10:12.534Z,4.60
2017-12-28T17:12:40.025Z,4.60
2017-12-28T17:15:07.514Z,4.60
2017-12-28T17:17:35.773Z,4.50
2017-12-28T17:20:04.043Z,4.30
2017-12-28T17:22:31.536Z,4.30
2017-12-28T17:24:59.031Z,4.30
2017-12-28T17:27:26.514Z,4.30
2017-12-28T17:29:54.018Z,4.20
2017-12-28T17:32:21.510Z,4.20
2017-12-28T17:34:49.010Z,4.20
2017-12-28T17:37:17.279Z,4.00
2017-12-28T17:39:45.535Z,4.00
2017-12-28T17:42:13.266Z,4.00
2017-12-28T17:44:40.767Z,3.90
2017-12-28T17:47:08.283Z,3.80
2017-12-28T17:49:35.999Z,3.70
2017-12-28T17:52:04.258Z,3.60
2017-12-28T17:54:31.766Z,3.60
2017-12-28T17:56:59.270Z,3.50
2017-12-28T17:59:26.763Z,3.40
2017-12-28T18:01:55.028Z,3.30
2017-12-28T18:04:23.287Z,3.30
2017-12-28T18:06:50.804Z,3.30
2017-12-28T18:09:18.322Z,3.20
2017-12-28T18:11:46.578Z,3.10
2017-12-28T18:14:14.082Z,3.10
2017-12-28T18:16:41.578Z,3.00
2017-12-28T18:19:09.074Z,3.00
2017-12-28T18:21:37.350Z,2.90
2017-12-28T18:24:05.616Z,2.90
2017-12-28T18:26:33.102Z,2.80
2017-12-28T18:29:00.608Z,2.70
2017-12-28T18:31:28.102Z,2.60
2017-12-28T18:33:56.474Z,2.90
2017-12-28T18:36:24.730Z,3.10
2017-12-28T18:38:52.229Z,3.00
2017-12-28T18:41:19.734Z,3.10
2017-12-28T18:43:47.228Z,3.00
2017-12-28T18:46:15.501Z,3.00
2017-12-28T18:48:43.767Z,3.10
2017-12-28T18:51:12.032Z,3.00
2017-12-28T18:53:39.563Z,3.00
2017-12-28T18:56:07.044Z,2.90
2017-12-28T18:58:34.560Z,2.80
2017-12-28T19:01:02.092Z,2.70
2017-12-28T19:03:30.353Z,2.80
2017-12-28T19:05:58.038Z,2.80
2017-12-28T19:08:25.552Z,2.60
2017-12-28T19:10:53.255Z,2.60
2017-12-28T19:13:21.530Z,2.40
2017-12-28T19:15:49.783Z,2.30
2017-12-28T19:18:18.050Z,2.30
2017-12-28T19:20:45.555Z,2.30
2017-12-28T19:23:13.067Z,2.40
2017-12-28T19:25:40.570Z,2.40
2017-12-28T19:28:08.073Z,2.50
2017-12-28T19:30:35.576Z,2.60
2017-12-28T19:33:03.857Z,2.50
2017-12-28T19:35:32.239Z,2.40
2017-12-28T19:38:00.503Z,2.50
2017-12-28T19:40:28.767Z,2.50
2017-12-28T19:42:56.286Z,2.50
2017-12-28T19:45:23.908Z,2.40
2017-12-28T19:47:52.206Z,2.40
2017-12-28T19:50:19.704Z,2.40
2017-12-28T19:52:47.211Z,2.30
2017-12-28T19:55:14.722Z,2.20
2017-12-28T19:57:42.207Z,2.30
2017-12-28T20:00:10.459Z,2.20
2017-12-28T20:02:38.082Z,2.20
2017-12-28T20:05:05.582Z,2.20
2017-12-28T20:07:33.843Z,2.30
2017-12-28T20:10:01.349Z,2.20
2017-12-28T20:12:28.873Z,2.30
2017-12-28T20:14:56.398Z,2.30
2017-12-28T20:17:23.899Z,2.30
2017-12-28T20:19:51.395Z,2.30
2017-12-28T20:22:18.890Z,2.30
2017-12-28T20:24:46.429Z,2.30
2017-12-28T20:27:13.967Z,2.30
2017-12-28T20:29:41.465Z,2.40
2017-12-28T20:32:08.990Z,2.40
2017-12-28T20:34:36.506Z,2.50
2017-12-28T20:37:04.199Z,2.60
2017-12-28T20:39:32.458Z,2.60
2017-12-28T20:42:00.754Z,2.50
2017-12-28T20:44:28.264Z,2.50
2017-12-28T20:46:55.770Z,2.60
2017-12-28T20:49:23.271Z,2.50
2017-12-28T20:51:50.793Z,2.60
2017-12-28T20:54:18.311Z,2.60
2017-12-28T20:56:45.834Z,2.70
2017-12-28T20:59:13.345Z,2.70
2017-12-28T21:01:41.606Z,2.70
2017-12-28T21:04:09.136Z,2.70
2017-12-28T21:06:36.657Z,2.70
2017-12-28T21:09:04.182Z,2.80
2017-12-28T21:11:31.705Z,2.90
2017-12-28T21:13:59.215Z,2.90
2017-12-28T21:16:27.471Z,2.90
2017-12-28T21:18:54.967Z,2.90
2017-12-28T21:21:22.502Z,2.90
2017-12-28T21:23:49.975Z,2.90
2017-12-28T21:26:18.262Z,2.90
2017-12-28T21:28:45.799Z,2.90
2017-12-28T21:31:14.067Z,2.90
2017-12-28T21:33:41.598Z,2.90
2017-12-28T21:36:09.128Z,2.90
2017-12-28T21:38:36.671Z,2.90
2017-12-28T21:41:04.942Z,2.80
2017-12-28T21:43:33.209Z,2.90
2017-12-28T21:46:01.474Z,2.90
2017-12-28T21:48:30.490Z,2.90
2017-12-28T21:50:58.891Z,2.90
2017-12-28T21:53:26.399Z,2.90
2017-12-28T21:55:53.919Z,3.00
2017-12-28T21:58:21.410Z,3.00
2017-12-28T22:00:49.102Z,3.10
2017-12-28T22:03:17.376Z,3.10
2017-12-28T22:05:45.634Z,3.10
2017-12-28T22:08:13.134Z,3.10
2017-12-28T22:10:40.636Z,3.20
2017-12-28T22:13:08.122Z,3.20
2017-12-28T22:15:36.387Z,3.20
2017-12-28T22:18:04.007Z,3.20
2017-12-28T22:20:31.507Z,3.20
2017-12-28T22:22:59.014Z,3.30
2017-12-28T22:25:26.526Z,3.40
2017-12-28T22:27:54.791Z,3.40
2017-12-28T22:30:22.283Z,3.40
2017-12-28T22:32:49.787Z,3.40
2017-12-28T22:35:17.282Z,3.40
2017-12-28T22:37:45.545Z,3.40
2017-12-28T22:40:13.034Z,3.40
2017-12-28T22:42:41.317Z,3.30
2017-12-28T22:45:08.811Z,3.30
2017-12-28T22:47:36.519Z,3.30
2017-12-28T22:50:04.775Z,3.30
2017-12-28T22:52:32.266Z,3.30
2017-12-28T22:54:59.775Z,3.30
2017-12-28T22:57:27.482Z,3.40
2017-12-28T22:59:55.738Z,3.50
2017-12-28T23:02:23.243Z,3.50
2017-12-28T23:04:50.738Z,3.50
2017-12-28T23:07:18.250Z,3.50
2017-12-28T23:09:45.777Z,3.50
2017-12-28T23:12:14.035Z,3.60
2017-12-28T23:14:41.531Z,3.60
2017-12-28T23:17:09.791Z,3.70
2017-12-28T23:19:38.836Z,3.70
2017-12-28T23:22:06.343Z,3.70
2017-12-28T23:24:33.860Z,3.60
2017-12-28T23:27:01.359Z,3.60
2017-12-28T23:29:29.614Z,3.70
2017-12-28T23:31:57.108Z,3.70
2017-12-28T23:34:25.371Z,3.80
2017-12-28T23:36:53.637Z,3.90
2017-12-28T23:39:21.151Z,3.90
2017-12-28T23:41:48.658Z,3.90
2017-12-28T23:44:16.162Z,3.80
2017-12-28T23:46:43.674Z,3.80
2017-12-28T23:49:11.950Z,3.80
2017-12-28T23:51:40.206Z,3.80
2017-12-28T23:54:07.699Z,3.80
2017-12-28T23:56:35.973Z,3.80
2017-12-28T23:59:04.413Z,3.80
